Aeroporto :
LOGIN :

Iscrizione | Disclaimer

   EN    FR    IT 

 










Sommario :    VFR   VFR Marginale   IFR   IFR Intensivo   IFR Molto Intensivo
Visibilità : 
Base nubi : 
>= 8 km
>= 3000ft
5 / 8 km
1000 / 3000 ft
1500m / 5 km
500 / 1000 ft
800 / 1500m
200 / 500 ft
< 800m
< 200 ft
Simboli :   Temporali  Nebbia  Neve Forte  Precipitazioni Forti  Vento > 20 kt
SIGMETs :   Varie  Temporali  Ghiacco  Turbolenza  Onda orograficha  Ceneri Vulcaniche






- Altitudine del aeroporto : 412 ft
- Codice IATA : ORE


LFOJ - Orleans

ULTIMO METAR :
  • 171330Z AUTO 20014KT 9999 BKN012 OVC027 16/14 Q1010 TEMPO 18015G25KT 4500 -SHRA BKN020TCU

METARs OBSOLETI :
  • 171300Z AUTO 21014KT 9999 BKN008 OVC042 16/14 Q1010 BECMG VRB03KT BKN010
  • 171230Z AUTO 21012KT 9999 BKN006 OVC021 15/14 Q1010 BECMG BKN010
  • 171200Z AUTO 21012KT 9999 OVC005 15/14 Q1010 BECMG BKN010
  • 171130Z AUTO 21009KT 5000 -DZ BR OVC004 14/14 Q1010 BECMG BKN010
  • 171100Z AUTO 20007KT 6000 OVC004 14/14 Q1010 TEMPO 4000 -DZ BECMG BKN010

TAF TAF LFOJ
Valido dal 17 a 09 ore il 18 a 09 ore UTC


170800Z 1709/1809 VRB03KT 9999 BKN010
TEMPO 1709/1712 4000 -DZ BKN004
PROB40
TEMPO 1715/1718 18015G25KT 4500 -SHRA BKN020TCU
TEMPO 1804/1809 20015G30KT 2500 SHRA BKN015 SCT020CB



MetMap, La meteo Aeronautica in un colpo d'occhio ! - Copyright ORBIFLY Dicembre 2007 - Disclaimer

ORBIFLY MET'MAP TEAM :

Programmazione e sviluppo : Alexandra Zaïnal
Concezione e sviluppo : Baudouin d'Aumeries
Co-Programmazione e sviluppo : Marc-Olivier Méhu
Supporto tecnico e logistico : Manuel Goepfert
Aiuto per la traduzione : Arnaldo La Scala

Contatto : metmap@orbifly.com




FONTI E CREDITI :

   NOAA